Terminal Aerodrome Forecast
Issued by NWS Melbourne, FL

Home | Current Version | Previous Version | Text Only | Print | Product List | Glossary On
Versions: 1 2 3 4 5 6 7 8 9 10 11 12 13
000
FTUS42 KMLB 220529
TAFMLB
TAF
KMLB 220529Z 2206/2306 09015G22KT P6SM VCSH SCT015 BKN025
      TEMPO 2207/2209 5SM SHRA BKN020
     FM221300 10015G21KT P6SM VCSH SCT025 BKN035
     FM221800 11017G24KT P6SM VCTS SCT020CB BKN040
     FM230000 11012KT P6SM VCSH SCT025 BKN035=

USA.gov is the U.S. government's official web portal to all federal, state and local government web resources and services.